Rio Grande City, Texas
Current Conditions -  °F | °C
As of 1:30 AM on Sunday 23 Nov 2014 (Local Time) from KMFE Reporting Station
Haze Haze  
Wind Chill: 63°   Ceiling: Unl
Heat Index: 63°   Visibility: 2.5mi
Dew Point: 63°   Wind: 0mph
Humidity: 100%   Direction: NA
Pressure: 29.79"   Gusts: NA
Location:  26.38°N, 98.81°W
Report Text: KMFE 230730Z AUTO 00000KT 2 1/2SM BR SCT002 17/17 A2979 RMK AO2 T01720172
Loading
Personal Weather Stations






























Interactive Weather Map New forecast layout! Learn more

10-Day Weather Forecast

Advertisements
Track Severe Weather on mobile